Time;durP1;ratioP1;P1;durP2;ratioP2;P2;SDS_P1;SDS_P2;PMS_P1;PMS_P2;Temp;Humidity;BMP_temperature;BMP_pressure;BME280_temperature;BME280_humidity;BME280_pressure;Samples;Min_cycle;Max_cycle;Signal;HPM_P1;HPM_P2
2021/11/29 00:00:19;;;;;;;49.50;27.02;;;2.10;99.90;;;;;;4993792;28;20065;-57
2021/11/29 00:02:50;;;;;;;44.97;26.52;;;2.00;99.90;;;;;;4994896;28;20088;-57
2021/11/29 00:05:18;;;;;;;49.03;26.70;;;2.00;99.90;;;;;;4997413;28;20062;-58
2021/11/29 00:07:43;;;;;;;48.00;25.83;;;2.00;99.90;;;;;;4984155;28;20036;-57
2021/11/29 00:10:09;;;;;;;42.67;24.17;;;2.00;99.90;;;;;;5004904;28;20021;-60
2021/11/29 00:12:35;;;;;;;40.22;23.65;;;2.00;99.90;;;;;;5009083;28;20710;-58
2021/11/29 00:15:01;;;;;;;48.67;25.42;;;2.00;99.90;;;;;;5006293;28;20110;-60
2021/11/29 00:17:27;;;;;;;46.10;25.45;;;1.90;99.90;;;;;;5001027;28;20037;-57
2021/11/29 00:19:53;;;;;;;42.70;26.10;;;1.90;99.90;;;;;;4995844;28;20035;-59
2021/11/29 00:22:18;;;;;;;49.05;27.27;;;1.80;99.90;;;;;;4998855;28;20041;-57
2021/11/29 00:24:44;;;;;;;53.47;28.45;;;1.90;99.90;;;;;;4993003;28;20030;-53
2021/11/29 00:27:10;;;;;;;53.83;26.85;;;1.90;99.90;;;;;;5000248;28;20532;-57
2021/11/29 00:29:35;;;;;;;52.20;30.45;;;1.90;99.90;;;;;;5002801;28;20101;-55
2021/11/29 00:32:02;;;;;;;53.67;28.92;;;1.90;99.90;;;;;;5006142;28;20027;-58
2021/11/29 00:34:27;;;;;;;49.90;27.25;;;1.90;99.90;;;;;;5014628;28;20104;-57
2021/11/29 00:36:53;;;;;;;53.92;28.35;;;1.90;99.90;;;;;;5005798;28;20455;-56
2021/11/29 00:39:19;;;;;;;52.33;28.23;;;1.80;99.90;;;;;;5019733;28;20586;-58
2021/11/29 00:41:45;;;;;;;53.55;28.42;;;1.70;99.90;;;;;;5002299;28;20038;-57
2021/11/29 00:44:11;;;;;;;55.05;27.05;;;1.60;99.90;;;;;;5007875;28;20053;-58
2021/11/29 00:46:37;;;;;;;63.08;29.98;;;1.50;99.90;;;;;;5004861;28;20492;-59
2021/11/29 00:49:03;;;;;;;59.20;28.65;;;1.40;99.90;;;;;;5016048;28;20112;-59
2021/11/29 00:51:29;;;;;;;63.88;31.55;;;1.40;99.90;;;;;;5015804;28;20645;-56
2021/11/29 00:53:55;;;;;;;61.35;29.52;;;1.30;99.90;;;;;;5013454;28;20112;-57
2021/11/29 00:56:21;;;;;;;69.90;32.03;;;1.30;99.90;;;;;;5018263;28;20104;-56
2021/11/29 00:58:48;;;;;;;57.97;29.95;;;1.20;99.90;;;;;;5004026;28;20026;-57
2021/11/29 01:01:15;;;;;;;63.78;31.33;;;1.20;99.90;;;;;;5013341;28;20499;-56
2021/11/29 01:03:40;;;;;;;65.32;30.67;;;1.20;99.90;;;;;;5019156;28;20036;-58
2021/11/29 01:06:07;;;;;;;63.00;30.83;;;1.20;99.90;;;;;;5002568;28;20422;-56
2021/11/29 01:08:33;;;;;;;63.35;31.50;;;1.30;99.90;;;;;;4994773;28;20106;-60
2021/11/29 01:11:00;;;;;;;66.63;32.05;;;1.30;99.90;;;;;;4998520;28;20030;-57
2021/11/29 01:13:26;;;;;;;62.13;33.95;;;1.30;99.90;;;;;;4987956;28;20045;-57
2021/11/29 01:15:51;;;;;;;58.72;33.40;;;1.30;99.90;;;;;;5003167;28;20083;-57
2021/11/29 01:18:17;;;;;;;66.55;32.65;;;1.40;99.90;;;;;;5009396;28;20061;-57
2021/11/29 01:20:44;;;;;;;59.45;32.80;;;1.40;99.90;;;;;;5000577;28;20033;-58
2021/11/29 01:23:12;;;;;;;62.17;33.22;;;1.40;99.90;;;;;;4997489;28;20062;-58
2021/11/29 01:25:38;;;;;;;59.20;33.08;;;1.40;99.90;;;;;;5015906;28;20159;-57
2021/11/29 01:28:04;;;;;;;59.03;32.53;;;1.30;99.90;;;;;;4999606;28;20031;-56
2021/11/29 01:30:30;;;;;;;52.78;30.70;;;1.30;99.90;;;;;;4998012;28;20408;-58
2021/11/29 01:32:56;;;;;;;67.05;32.10;;;1.20;99.90;;;;;;5004148;28;20093;-57
2021/11/29 01:35:22;;;;;;;66.45;32.88;;;1.10;99.90;;;;;;4994230;28;20027;-54
2021/11/29 01:37:48;;;;;;;60.88;32.60;;;1.10;99.90;;;;;;4997930;28;20032;-59
2021/11/29 01:40:13;;;;;;;62.53;31.02;;;1.00;99.90;;;;;;4998790;28;20056;-60
2021/11/29 01:42:58;;;;;;;57.33;30.45;;;0.90;99.90;;;;;;5009437;28;20861;-57
2021/11/29 01:45:24;;;;;;;74.20;32.88;;;0.80;99.90;;;;;;4999819;28;20022;-56
2021/11/29 01:47:49;;;;;;;64.63;34.35;;;0.80;99.90;;;;;;5001290;28;20131;-57
2021/11/29 01:50:15;;;;;;;72.90;34.05;;;0.80;99.90;;;;;;4997738;28;20062;-56
2021/11/29 01:52:41;;;;;;;70.05;34.45;;;0.80;99.90;;;;;;5008299;28;20025;-56
2021/11/29 01:55:07;;;;;;;80.60;36.78;;;0.70;99.90;;;;;;5008108;28;20026;-57
2021/11/29 01:57:32;;;;;;;74.05;36.20;;;0.70;99.90;;;;;;5000415;28;20054;-56
2021/11/29 01:59:58;;;;;;;73.97;34.15;;;0.60;99.90;;;;;;5011652;28;20139;-56
2021/11/29 02:02:27;;;;;;;60.25;30.58;;;0.60;99.90;;;;;;5005976;28;20107;-57
2021/11/29 02:04:58;;;;;;;55.08;29.35;;;0.50;99.90;;;;;;5012635;28;20044;-56
2021/11/29 02:07:24;;;;;;;66.07;29.60;;;0.50;99.90;;;;;;5009826;28;20057;-55
2021/11/29 02:09:50;;;;;;;57.55;27.75;;;0.40;99.90;;;;;;5009654;28;20447;-57
2021/11/29 02:12:15;;;;;;;51.45;25.73;;;0.30;99.90;;;;;;5006519;28;20037;-58
2021/11/29 02:14:42;;;;;;;55.30;25.85;;;0.30;99.90;;;;;;5012069;28;20483;-59
2021/11/29 02:17:08;;;;;;;54.03;25.40;;;0.20;99.90;;;;;;5011374;28;20407;-57
2021/11/29 02:19:42;;;;;;;62.70;26.80;;;0.20;99.90;;;;;;5012377;28;20029;-60
2021/11/29 02:22:08;;;;;;;58.05;29.13;;;0.10;99.90;;;;;;5011183;28;20124;-57
2021/11/29 02:24:33;;;;;;;53.38;25.23;;;0.10;99.90;;;;;;5014950;28;20760;-57
2021/11/29 02:26:59;;;;;;;56.85;25.92;;;0.00;99.90;;;;;;5014113;28;20026;-56
2021/11/29 02:29:25;;;;;;;53.95;25.13;;;-0.10;99.90;;;;;;5020243;28;20109;-54
2021/11/29 02:31:50;;;;;;;55.65;24.90;;;-0.10;99.90;;;;;;5018387;28;20383;-57
2021/11/29 02:34:25;;;;;;;57.58;26.85;;;-0.10;99.90;;;;;;5006480;28;20030;-60
2021/11/29 02:36:53;;;;;;;60.13;27.80;;;-0.20;99.90;;;;;;5007341;28;20041;-59
2021/11/29 02:39:19;;;;;;;68.60;28.50;;;-0.20;99.90;;;;;;5006731;28;20071;-59
2021/11/29 02:41:48;;;;;;;64.40;29.90;;;-0.20;99.90;;;;;;5013662;28;20114;-59
2021/11/29 02:44:15;;;;;;;66.72;31.40;;;-0.20;99.90;;;;;;4998048;28;20027;-58
2021/11/29 02:46:42;;;;;;;65.57;28.35;;;-0.20;99.90;;;;;;5000301;28;20049;-56
2021/11/29 02:49:09;;;;;;;72.60;32.10;;;-0.20;99.90;;;;;;5006520;28;20424;-56
2021/11/29 02:51:44;;;;;;;67.40;29.88;;;-0.10;99.90;;;;;;5016215;28;20112;-57
2021/11/29 02:54:18;;;;;;;71.50;30.38;;;0.00;99.90;;;;;;4999959;28;20029;-57
2021/11/29 02:56:47;;;;;;;61.78;29.52;;;0.00;99.90;;;;;;5006861;28;20029;-59
2021/11/29 02:59:19;;;;;;;53.60;28.33;;;0.00;99.90;;;;;;5008712;28;20033;-57
2021/11/29 03:01:48;;;;;;;53.63;27.75;;;0.10;99.90;;;;;;4992483;28;20037;-56
2021/11/29 03:04:14;;;;;;;50.13;25.25;;;0.00;99.90;;;;;;4998924;28;20581;-55
2021/11/29 03:06:39;;;;;;;51.47;25.00;;;0.10;99.90;;;;;;5010037;28;20410;-55
2021/11/29 03:09:06;;;;;;;43.90;23.88;;;0.00;99.90;;;;;;5010713;28;20041;-56
2021/11/29 03:11:32;;;;;;;45.42;22.50;;;0.10;99.90;;;;;;5009031;28;20022;-57
2021/11/29 03:13:58;;;;;;;43.53;21.40;;;0.10;99.90;;;;;;5009105;28;20376;-59
2021/11/29 03:16:24;;;;;;;37.55;20.42;;;0.10;99.90;;;;;;5001494;28;20511;-58
2021/11/29 03:18:50;;;;;;;40.47;20.33;;;0.10;99.90;;;;;;4995766;28;20088;-57
2021/11/29 03:21:21;;;;;;;33.03;18.38;;;0.10;99.90;;;;;;5012029;28;20034;-57
2021/11/29 03:23:49;;;;;;;39.30;18.75;;;0.10;99.90;;;;;;4986766;28;20479;-56
2021/11/29 03:26:18;;;;;;;35.67;19.42;;;0.10;99.90;;;;;;4998032;28;20041;-56
2021/11/29 03:28:46;;;;;;;32.15;18.70;;;0.10;99.90;;;;;;5015935;28;20032;-59
2021/11/29 03:31:13;;;;;;;31.92;18.10;;;0.10;99.90;;;;;;5015080;28;20462;-56
2021/11/29 03:33:40;;;;;;;34.80;16.88;;;0.10;99.90;;;;;;5014013;28;20395;-56
2021/11/29 03:36:06;;;;;;;30.38;18.25;;;0.10;99.90;;;;;;5009305;28;20041;-56
2021/11/29 03:38:33;;;;;;;46.72;17.23;;;0.10;99.90;;;;;;5019529;28;20030;-58
2021/11/29 03:40:59;;;;;;;32.92;17.60;;;0.10;99.90;;;;;;5008411;28;20099;-57
2021/11/29 03:43:25;;;;;;;32.75;17.10;;;0.10;99.90;;;;;;4994689;28;20029;-57
2021/11/29 03:45:51;;;;;;;32.15;18.90;;;0.00;99.90;;;;;;4998415;28;20041;-59
2021/11/29 03:48:18;;;;;;;35.50;18.90;;;0.00;99.90;;;;;;5001571;28;20096;-59
2021/11/29 03:50:43;;;;;;;33.80;17.80;;;0.00;99.90;;;;;;5006623;28;20108;-58
2021/11/29 03:53:09;;;;;;;40.53;19.48;;;0.00;99.90;;;;;;5015707;28;20121;-57
2021/11/29 03:55:35;;;;;;;36.92;17.15;;;0.00;99.90;;;;;;5001272;28;20042;-57
2021/11/29 03:58:01;;;;;;;31.77;18.17;;;0.00;99.90;;;;;;5000642;28;20049;-58
2021/11/29 04:00:26;;;;;;;39.10;18.42;;;-0.10;99.90;;;;;;5005677;28;20520;-58
2021/11/29 04:02:52;;;;;;;32.40;17.70;;;0.00;99.90;;;;;;5005903;28;20030;-59
2021/11/29 04:05:18;;;;;;;30.90;19.08;;;0.00;99.90;;;;;;5003121;28;20058;-56
2021/11/29 04:07:44;;;;;;;37.58;19.67;;;0.00;99.90;;;;;;5000959;28;20030;-57
2021/11/29 04:10:10;;;;;;;40.30;18.67;;;-0.10;99.90;;;;;;5011424;28;20092;-56
2021/11/29 04:12:36;;;;;;;39.35;20.23;;;0.00;99.90;;;;;;5015937;28;20044;-56
2021/11/29 04:15:04;;;;;;;38.65;20.20;;;0.00;99.90;;;;;;5007302;28;20781;-55
2021/11/29 04:17:30;;;;;;;43.85;19.83;;;0.00;99.90;;;;;;4998438;28;20061;-57
2021/11/29 04:19:55;;;;;;;35.60;19.08;;;0.00;99.90;;;;;;5013361;28;20050;-57
2021/11/29 04:22:21;;;;;;;37.10;19.42;;;0.00;99.90;;;;;;5013068;28;20045;-57
2021/11/29 04:24:47;;;;;;;34.03;18.63;;;0.00;99.90;;;;;;5017780;28;20025;-54
2021/11/29 04:27:14;;;;;;;30.25;19.33;;;0.00;99.90;;;;;;5011549;28;20037;-57
2021/11/29 04:29:43;;;;;;;32.00;18.75;;;0.10;99.90;;;;;;5020637;28;20033;-56
2021/11/29 04:32:09;;;;;;;37.17;19.00;;;0.10;99.90;;;;;;5008990;28;20029;-54
2021/11/29 04:34:35;;;;;;;37.75;18.52;;;0.10;99.90;;;;;;5008084;28;20041;-58
2021/11/29 04:37:04;;;;;;;37.35;19.58;;;0.10;99.90;;;;;;5005355;28;20038;-58
2021/11/29 04:39:30;;;;;;;36.53;21.40;;;0.10;99.90;;;;;;5010605;28;20029;-56
2021/11/29 04:41:56;;;;;;;40.67;22.20;;;0.10;99.90;;;;;;5002372;28;20058;-58
2021/11/29 04:44:22;;;;;;;33.70;19.10;;;0.10;99.90;;;;;;4997236;28;20507;-55
2021/11/29 04:46:48;;;;;;;54.50;22.63;;;0.00;99.90;;;;;;5005804;28;20045;-58
2021/11/29 04:49:13;;;;;;;35.05;17.83;;;0.00;99.90;;;;;;5005002;28;20026;-59
2021/11/29 04:51:39;;;;;;;39.17;17.63;;;0.00;99.90;;;;;;5009644;28;20021;-56
2021/11/29 04:54:05;;;;;;;32.28;16.77;;;0.00;99.90;;;;;;5007531;28;20065;-56
2021/11/29 04:56:31;;;;;;;34.10;16.27;;;0.00;99.90;;;;;;5010758;28;20072;-57
2021/11/29 04:58:57;;;;;;;29.45;16.77;;;0.00;99.90;;;;;;5017975;28;20025;-58
2021/11/29 05:01:23;;;;;;;27.58;16.23;;;0.00;99.90;;;;;;5014391;28;20117;-58
2021/11/29 05:03:49;;;;;;;32.13;17.48;;;0.00;99.90;;;;;;5003158;28;20022;-58
2021/11/29 05:06:14;;;;;;;39.40;17.58;;;0.00;99.90;;;;;;5009288;28;20105;-59
2021/11/29 05:08:40;;;;;;;29.85;16.33;;;0.00;99.90;;;;;;4992498;28;20523;-58
2021/11/29 05:11:06;;;;;;;28.83;18.35;;;0.00;99.90;;;;;;5020557;28;20021;-56
2021/11/29 05:13:32;;;;;;;38.58;17.95;;;0.00;99.90;;;;;;5008748;28;20069;-58
2021/11/29 05:15:58;;;;;;;33.03;17.20;;;0.10;99.90;;;;;;5011560;28;20022;-57
2021/11/29 05:18:24;;;;;;;37.40;20.35;;;0.10;99.90;;;;;;5009688;28;20113;-56
2021/11/29 05:20:50;;;;;;;67.10;30.30;;;0.10;99.90;;;;;;5010847;28;20547;-57
2021/11/29 05:23:17;;;;;;;139.90;57.35;;;0.10;99.90;;;;;;5006132;28;20046;-57
2021/11/29 05:25:43;;;;;;;355.75;107.95;;;0.20;99.90;;;;;;5009060;28;20103;-59
2021/11/29 05:28:09;;;;;;;658.67;201.40;;;0.10;99.90;;;;;;5003347;28;20022;-54
2021/11/29 05:30:35;;;;;;;224.38;69.35;;;0.10;99.90;;;;;;5008714;28;20890;-57
2021/11/29 05:33:01;;;;;;;305.45;75.93;;;0.10;99.90;;;;;;5005526;28;20444;-58
2021/11/29 05:35:27;;;;;;;129.15;42.38;;;0.10;99.90;;;;;;5011812;28;20596;-57
2021/11/29 05:37:52;;;;;;;319.45;85.40;;;0.10;99.90;;;;;;5004545;28;20037;-58
2021/11/29 05:40:18;;;;;;;220.93;63.08;;;0.10;99.90;;;;;;5024840;28;20021;-56
2021/11/29 05:42:44;;;;;;;149.93;49.17;;;0.20;99.90;;;;;;5000390;28;20030;-53
2021/11/29 05:45:11;;;;;;;88.93;39.42;;;0.20;99.90;;;;;;4997757;28;20040;-58
2021/11/29 05:47:37;;;;;;;48.83;24.65;;;0.20;99.90;;;;;;4996979;28;20444;-57
2021/11/29 05:50:08;;;;;;;33.28;16.50;;;0.30;99.90;;;;;;5002245;28;20034;-57
2021/11/29 05:52:34;;;;;;;20.23;13.48;;;0.30;99.90;;;;;;5009494;28;20081;-53
2021/11/29 05:54:59;;;;;;;27.40;13.90;;;0.40;99.90;;;;;;5005140;28;20100;-57
2021/11/29 05:57:25;;;;;;;23.13;12.65;;;0.40;99.90;;;;;;5001594;28;20555;-56
2021/11/29 05:59:51;;;;;;;23.88;13.23;;;0.50;99.90;;;;;;5004046;28;20084;-58
2021/11/29 06:02:17;;;;;;;22.60;11.95;;;0.50;99.90;;;;;;5009335;28;20577;-57
2021/11/29 06:04:43;;;;;;;21.63;11.18;;;0.50;99.90;;;;;;5004454;28;20547;-56
2021/11/29 06:07:08;;;;;;;19.55;11.18;;;0.60;99.90;;;;;;5001354;28;20057;-55
2021/11/29 06:09:34;;;;;;;16.25;11.77;;;0.60;99.90;;;;;;4981463;28;20077;-56
2021/11/29 06:11:59;;;;;;;19.65;12.48;;;0.60;99.90;;;;;;5005951;28;20553;-57
2021/11/29 06:14:26;;;;;;;21.42;13.57;;;0.60;99.90;;;;;;5001791;28;20112;-59
2021/11/29 06:16:55;;;;;;;23.55;13.10;;;0.70;99.90;;;;;;4999392;28;20022;-57
2021/11/29 06:19:21;;;;;;;22.35;13.05;;;0.70;99.90;;;;;;5002669;28;20034;-56
2021/11/29 06:21:46;;;;;;;45.58;26.88;;;0.60;99.90;;;;;;4998241;28;20037;-57
2021/11/29 06:24:12;;;;;;;89.45;40.53;;;0.60;99.90;;;;;;5000619;28;20097;-59
2021/11/29 06:26:39;;;;;;;56.15;24.17;;;0.60;99.90;;;;;;5003100;28;20118;-57
2021/11/29 06:29:05;;;;;;;102.32;41.97;;;0.70;99.90;;;;;;5003197;28;20101;-57
2021/11/29 06:31:32;;;;;;;37.55;21.38;;;0.70;99.90;;;;;;4998359;28;20130;-59
2021/11/29 06:33:58;;;;;;;29.17;16.67;;;0.70;99.90;;;;;;5011160;28;20475;-58
2021/11/29 06:36:28;;;;;;;27.85;17.05;;;0.80;99.90;;;;;;5007133;28;20034;-56
2021/11/29 06:38:56;;;;;;;23.85;15.48;;;0.80;99.90;;;;;;4997720;28;20038;-59
2021/11/29 06:41:23;;;;;;;34.70;16.27;;;0.80;99.90;;;;;;4994217;28;20065;-56
2021/11/29 06:43:49;;;;;;;29.77;18.23;;;0.80;99.90;;;;;;5004071;28;20030;-58
2021/11/29 06:46:15;;;;;;;29.60;18.13;;;0.90;99.90;;;;;;5002475;28;20380;-58
2021/11/29 06:48:41;;;;;;;33.88;18.55;;;0.80;99.90;;;;;;5004242;28;20057;-56
2021/11/29 06:51:08;;;;;;;33.63;20.10;;;0.90;99.90;;;;;;4993070;28;20045;-57
2021/11/29 06:53:34;;;;;;;34.42;19.83;;;0.90;99.90;;;;;;4997261;28;20056;-57
2021/11/29 06:56:00;;;;;;;36.47;20.58;;;0.90;99.90;;;;;;5010652;28;20036;-57
2021/11/29 06:58:26;;;;;;;37.90;20.95;;;0.90;99.90;;;;;;5010553;28;20042;-59
2021/11/29 07:00:52;;;;;;;39.28;18.65;;;0.90;99.90;;;;;;5014548;28;20029;-58
2021/11/29 07:03:19;;;;;;;37.60;21.25;;;0.90;99.90;;;;;;5003311;28;20038;-56
2021/11/29 07:05:45;;;;;;;35.45;20.40;;;0.90;99.90;;;;;;5007171;28;20044;-58
2021/11/29 07:08:10;;;;;;;31.85;18.67;;;1.00;99.90;;;;;;4979782;28;20054;-54
2021/11/29 07:10:40;;;;;;;33.97;20.48;;;1.00;99.90;;;;;;4995341;28;20022;-55
2021/11/29 07:13:10;;;;;;;37.55;20.02;;;1.00;99.90;;;;;;4995665;28;20069;-55
2021/11/29 07:15:37;;;;;;;27.92;18.40;;;1.00;99.90;;;;;;5000262;28;20029;-56
2021/11/29 07:18:03;;;;;;;32.17;18.58;;;1.00;99.90;;;;;;5004238;28;20061;-58
2021/11/29 07:20:29;;;;;;;30.15;19.30;;;1.00;99.90;;;;;;5003611;28;20057;-55
2021/11/29 07:22:54;;;;;;;29.92;18.58;;;1.10;99.90;;;;;;5001574;28;20057;-55
2021/11/29 07:25:20;;;;;;;34.42;18.77;;;1.10;99.90;;;;;;5009471;28;20030;-57
2021/11/29 07:27:46;;;;;;;28.95;16.85;;;1.10;99.90;;;;;;4994969;28;20038;-57
2021/11/29 07:30:14;;;;;;;27.40;18.13;;;1.10;99.90;;;;;;5002227;28;20041;-57
2021/11/29 07:32:40;;;;;;;29.33;18.25;;;1.10;99.90;;;;;;5001367;28;20026;-59
2021/11/29 07:35:07;;;;;;;30.60;17.90;;;1.10;99.90;;;;;;5005603;28;20038;-54
2021/11/29 07:37:33;;;;;;;34.70;19.33;;;1.10;99.90;;;;;;4998809;28;20031;-56
2021/11/29 07:40:01;;;;;;;31.25;18.23;;;1.20;99.90;;;;;;5007194;28;20033;-57
2021/11/29 07:42:27;;;;;;;32.20;20.65;;;1.20;99.90;;;;;;5006443;28;20402;-57
2021/11/29 07:44:54;;;;;;;36.55;19.65;;;1.20;99.90;;;;;;5004820;28;20160;-57
2021/11/29 07:47:21;;;;;;;41.35;22.02;;;1.20;99.90;;;;;;4995738;28;20030;-57
2021/11/29 07:49:46;;;;;;;56.92;31.50;;;1.20;99.90;;;;;;5004873;28;20388;-56
2021/11/29 07:52:14;;;;;;;56.30;32.90;;;1.20;99.90;;;;;;5002427;28;20087;-56
2021/11/29 07:54:42;;;;;;;44.45;25.65;;;1.30;99.90;;;;;;5000750;28;20026;-58
2021/11/29 07:57:11;;;;;;;38.28;23.45;;;1.40;99.90;;;;;;5000941;28;20133;-56
2021/11/29 07:59:37;;;;;;;37.35;20.02;;;1.50;99.90;;;;;;5010777;28;20070;-56
2021/11/29 08:02:02;;;;;;;37.10;20.80;;;1.50;99.90;;;;;;5000627;28;20056;-58
2021/11/29 08:04:28;;;;;;;34.88;17.38;;;1.50;99.90;;;;;;5003864;28;20491;-56
2021/11/29 08:06:54;;;;;;;27.02;18.05;;;1.50;99.90;;;;;;5001164;28;20048;-57
2021/11/29 08:09:19;;;;;;;30.58;16.15;;;1.50;99.90;;;;;;4992004;28;20547;-57
2021/11/29 08:11:45;;;;;;;24.58;14.55;;;1.50;99.90;;;;;;5005309;28;20503;-57
2021/11/29 08:14:11;;;;;;;24.20;14.35;;;1.50;99.90;;;;;;4997461;28;20109;-57
2021/11/29 08:16:36;;;;;;;22.13;13.35;;;1.50;99.90;;;;;;5011477;28;20061;-59
2021/11/29 08:19:02;;;;;;;32.65;17.65;;;1.50;99.90;;;;;;5001547;28;20157;-55
2021/11/29 08:21:28;;;;;;;26.95;15.63;;;1.50;99.90;;;;;;5001086;28;20034;-55
2021/11/29 08:23:53;;;;;;;22.33;15.60;;;1.50;99.90;;;;;;5006968;28;20033;-57
2021/11/29 08:26:19;;;;;;;23.08;14.82;;;1.50;99.90;;;;;;5006031;28;20046;-56
2021/11/29 08:28:45;;;;;;;26.83;14.43;;;1.50;99.90;;;;;;5003351;28;20137;-60
2021/11/29 08:31:10;;;;;;;24.27;14.75;;;1.50;99.90;;;;;;5003042;28;20715;-56
2021/11/29 08:33:36;;;;;;;24.48;14.60;;;1.50;99.90;;;;;;5000277;28;20085;-58
2021/11/29 08:36:02;;;;;;;24.42;14.90;;;1.50;99.90;;;;;;5000408;28;20049;-60
2021/11/29 08:38:28;;;;;;;25.90;14.43;;;1.50;99.90;;;;;;5001718;28;20514;-57
2021/11/29 08:40:54;;;;;;;25.15;13.80;;;1.60;99.90;;;;;;5000556;28;20034;-57
2021/11/29 08:43:20;;;;;;;26.65;13.20;;;1.60;99.90;;;;;;5008314;28;20395;-58
2021/11/29 08:45:49;;;;;;;26.63;14.73;;;1.60;99.90;;;;;;5010851;28;20045;-57
2021/11/29 08:48:16;;;;;;;29.67;16.27;;;1.70;99.90;;;;;;5015478;28;20030;-57
2021/11/29 08:50:45;;;;;;;25.88;14.35;;;1.70;99.90;;;;;;5019647;28;20029;-58
2021/11/29 08:53:13;;;;;;;23.42;13.73;;;1.80;99.90;;;;;;5011896;28;20551;-59
2021/11/29 08:55:39;;;;;;;29.05;13.65;;;1.80;99.90;;;;;;5016508;28;20017;-57
2021/11/29 08:58:07;;;;;;;27.35;13.55;;;1.90;99.90;;;;;;4996073;28;20026;-59
2021/11/29 09:00:35;;;;;;;37.25;16.88;;;1.80;99.90;;;;;;5006092;28;20539;-60
2021/11/29 09:03:06;;;;;;;26.00;14.13;;;1.80;99.90;;;;;;4997420;28;20037;-58
2021/11/29 09:05:32;;;;;;;30.73;15.77;;;1.80;99.90;;;;;;4998254;28;20021;-56
2021/11/29 09:07:58;;;;;;;40.95;21.20;;;1.80;99.90;;;;;;4981922;28;20069;-59
2021/11/29 09:10:24;;;;;;;40.30;20.02;;;1.80;99.90;;;;;;4998636;28;20054;-59
2021/11/29 09:12:49;;;;;;;41.05;20.13;;;1.80;99.90;;;;;;4996713;28;20022;-60
2021/11/29 09:15:17;;;;;;;42.42;19.02;;;1.90;99.90;;;;;;4995623;28;20093;-60
2021/11/29 09:17:43;;;;;;;26.08;15.10;;;1.90;99.90;;;;;;4994864;28;20037;-59
2021/11/29 09:20:11;;;;;;;28.98;15.85;;;1.90;99.90;;;;;;4993777;28;20030;-60
2021/11/29 09:22:38;;;;;;;30.27;14.98;;;2.00;99.90;;;;;;4998719;28;20034;-57
2021/11/29 09:25:05;;;;;;;27.80;15.95;;;2.10;99.90;;;;;;5003304;28;20443;-57
2021/11/29 09:27:31;;;;;;;26.70;13.43;;;2.30;99.90;;;;;;5000264;28;20045;-60
2021/11/29 09:29:57;;;;;;;27.05;15.40;;;2.30;99.90;;;;;;5004347;28;20018;-57
2021/11/29 09:32:23;;;;;;;30.05;15.52;;;2.40;99.90;;;;;;5007728;28;20590;-60
2021/11/29 09:34:49;;;;;;;24.40;13.32;;;2.40;99.90;;;;;;5013386;28;20107;-59
2021/11/29 09:37:16;;;;;;;44.78;22.77;;;2.50;99.90;;;;;;5011390;28;20064;-55
2021/11/29 09:39:42;;;;;;;30.30;15.63;;;2.60;99.90;;;;;;5006162;28;20026;-55
2021/11/29 09:42:07;;;;;;;35.50;16.27;;;2.60;99.90;;;;;;4996858;28;20038;-53
2021/11/29 09:44:33;;;;;;;36.38;17.17;;;2.70;99.90;;;;;;5018342;28;20037;-58
2021/11/29 09:46:59;;;;;;;32.13;17.02;;;2.70;99.90;;;;;;5012976;28;20029;-59
2021/11/29 09:49:28;;;;;;;26.27;12.00;;;2.80;99.90;;;;;;5009431;28;20427;-59
2021/11/29 09:51:57;;;;;;;22.35;11.38;;;2.90;99.90;;;;;;5014090;28;20030;-58
2021/11/29 09:54:23;;;;;;;35.95;13.30;;;3.00;99.90;;;;;;5021038;28;20372;-56
2021/11/29 09:56:51;;;;;;;25.55;11.75;;;3.00;99.90;;;;;;5015374;28;20037;-57
2021/11/29 09:59:22;;;;;;;24.75;10.52;;;3.00;99.90;;;;;;5001906;28;20072;-55
2021/11/29 10:01:48;;;;;;;23.75;10.25;;;3.00;99.90;;;;;;4996072;28;20030;-59
2021/11/29 10:04:14;;;;;;;24.05;10.73;;;2.90;99.90;;;;;;4999745;28;20061;-60
2021/11/29 10:06:40;;;;;;;18.95;10.73;;;2.80;99.90;;;;;;5000437;28;20042;-59
2021/11/29 10:09:28;;;;;;;20.75;10.18;;;2.80;99.90;;;;;;4991035;28;20058;-61
2021/11/29 10:12:17;;;;;;;18.23;9.77;;;2.70;99.90;;;;;;5004615;28;20022;-59
2021/11/29 10:14:43;;;;;;;18.85;11.93;;;2.70;99.90;;;;;;4990679;28;20074;-57
2021/11/29 10:17:09;;;;;;;27.20;10.40;;;2.70;99.90;;;;;;5004464;28;20174;-50
2021/11/29 10:19:37;;;;;;;23.83;10.77;;;2.70;99.90;;;;;;5001594;28;20124;-57
2021/11/29 10:22:11;;;;;;;22.45;9.85;;;2.70;99.90;;;;;;4995355;28;20039;-54
2021/11/29 10:24:37;;;;;;;28.38;10.40;;;2.80;99.90;;;;;;4998065;28;20037;-60
2021/11/29 10:27:03;;;;;;;21.55;10.52;;;2.70;99.90;;;;;;5000457;28;20045;-59
2021/11/29 10:29:28;;;;;;;24.27;11.63;;;2.70;99.90;;;;;;5002864;28;20018;-56
2021/11/29 10:31:56;;;;;;;20.40;8.98;;;2.70;99.90;;;;;;5013537;28;20052;-59
2021/11/29 10:34:29;;;;;;;23.13;9.45;;;2.70;99.90;;;;;;4992493;28;20037;-59
2021/11/29 10:37:10;;;;;;;18.48;8.88;;;2.70;99.90;;;;;;5005715;28;20033;-57
2021/11/29 10:39:40;;;;;;;27.23;9.00;;;2.60;99.90;;;;;;5005579;28;20026;-56
2021/11/29 10:42:08;;;;;;;16.13;8.27;;;2.60;99.90;;;;;;5005314;28;20413;-60
2021/11/29 10:44:37;;;;;;;15.52;8.77;;;2.50;99.90;;;;;;5000473;28;20028;-59
2021/11/29 10:47:07;;;;;;;14.30;7.60;;;2.40;99.90;;;;;;5008545;28;20395;-57
2021/11/29 10:49:39;;;;;;;16.60;7.63;;;2.40;99.90;;;;;;5010565;28;20025;-53
2021/11/29 10:52:07;;;;;;;16.73;8.05;;;2.30;99.90;;;;;;5006917;28;20109;-60
2021/11/29 10:54:35;;;;;;;14.82;7.82;;;2.30;99.90;;;;;;5010931;28;20026;-60
2021/11/29 10:57:03;;;;;;;13.75;7.88;;;2.20;99.90;;;;;;5005658;28;20516;-58
2021/11/29 10:59:31;;;;;;;13.75;7.05;;;2.20;99.90;;;;;;5009474;28;20033;-60
2021/11/29 11:02:03;;;;;;;17.55;8.05;;;2.20;99.90;;;;;;4997200;28;20027;-60
2021/11/29 11:04:31;;;;;;;13.57;7.35;;;2.10;99.90;;;;;;5000439;28;20105;-58
2021/11/29 11:07:11;;;;;;;14.90;8.18;;;2.10;99.90;;;;;;5004379;28;20026;-59
2021/11/29 11:09:39;;;;;;;16.63;8.02;;;2.10;99.90;;;;;;4990196;28;21322;-58
2021/11/29 11:12:14;;;;;;;15.95;8.07;;;2.20;99.90;;;;;;5011272;28;20033;-59
2021/11/29 11:14:53;;;;;;;20.13;7.95;;;2.20;99.90;;;;;;5001664;28;20065;-58
2021/11/29 11:17:27;;;;;;;22.67;9.07;;;2.20;99.90;;;;;;4999207;28;20037;-60
2021/11/29 11:19:53;;;;;;;16.67;9.43;;;2.30;99.90;;;;;;4999014;28;20475;-58
2021/11/29 11:22:28;;;;;;;18.33;10.32;;;2.30;99.90;;;;;;5000236;28;20407;-58
2021/11/29 11:25:07;;;;;;;20.83;10.63;;;2.30;99.90;;;;;;5003811;28;20510;-59
2021/11/29 11:27:34;;;;;;;21.52;9.77;;;2.30;99.90;;;;;;5002141;28;20497;-59
2021/11/29 11:30:27;;;;;;;24.70;11.75;;;2.30;99.90;;;;;;4999847;28;20022;-60
2021/11/29 11:33:08;;;;;;;22.42;11.30;;;2.30;99.90;;;;;;5004660;28;20037;-58
2021/11/29 11:35:36;;;;;;;21.40;11.30;;;2.30;99.90;;;;;;5002159;28;20041;-56
2021/11/29 11:38:11;;;;;;;24.25;12.50;;;2.40;99.90;;;;;;5004154;28;20526;-58
2021/11/29 11:40:42;;;;;;;23.83;12.48;;;2.40;99.90;;;;;;5009157;28;20084;-60
2021/11/29 11:43:10;;;;;;;23.75;13.40;;;2.40;99.90;;;;;;4999395;28;20574;-52
2021/11/29 11:45:39;;;;;;;19.42;12.30;;;2.40;99.90;;;;;;5007459;28;20395;-59
2021/11/29 11:48:06;;;;;;;24.08;13.15;;;2.40;99.90;;;;;;4999550;28;20192;-58
2021/11/29 11:50:35;;;;;;;25.58;12.95;;;2.50;99.90;;;;;;5002519;28;20101;-56
2021/11/29 11:53:05;;;;;;;26.23;13.30;;;2.50;99.90;;;;;;4996006;28;20018;-57
2021/11/29 11:55:35;;;;;;;20.05;13.07;;;2.50;99.90;;;;;;4989501;28;20025;-59
2021/11/29 11:58:04;;;;;;;24.95;12.75;;;2.60;99.90;;;;;;4994638;28;20431;-58
2021/11/29 12:00:39;;;;;;;30.17;14.48;;;2.60;99.90;;;;;;4995548;28;20435;-58
2021/11/29 12:03:17;;;;;;;22.25;13.80;;;2.70;99.90;;;;;;5000659;28;20105;-55
2021/11/29 12:05:43;;;;;;;28.05;15.02;;;2.70;99.90;;;;;;5002033;28;20026;-55
2021/11/29 12:08:34;;;;;;;27.52;15.10;;;2.80;99.90;;;;;;5007283;28;20038;-58
2021/11/29 12:11:04;;;;;;;23.02;14.65;;;2.80;99.90;;;;;;4978729;28;20041;-57
2021/11/29 12:13:41;;;;;;;27.00;15.77;;;2.70;99.90;;;;;;5007016;28;20022;-57
2021/11/29 12:16:09;;;;;;;31.13;16.08;;;2.80;99.90;;;;;;5005073;28;20160;-60
2021/11/29 12:18:40;;;;;;;28.13;15.60;;;2.80;99.90;;;;;;4999388;28;20070;-57
2021/11/29 12:21:21;;;;;;;24.35;15.65;;;2.90;99.90;;;;;;5014838;28;20451;-56
2021/11/29 12:24:07;;;;;;;25.27;14.75;;;2.90;99.90;;;;;;5014762;28;20029;-58
2021/11/29 12:26:45;;;;;;;25.27;15.15;;;2.90;99.90;;;;;;5009266;28;20030;-59
2021/11/29 12:29:22;;;;;;;24.98;14.98;;;2.90;99.90;;;;;;5003342;28;20026;-55
2021/11/29 12:31:49;;;;;;;24.38;14.80;;;3.00;99.90;;;;;;5002050;28;20511;-58
2021/11/29 12:34:15;;;;;;;21.52;14.18;;;3.00;99.90;;;;;;5000264;28;20092;-57
2021/11/29 12:36:59;;;;;;;26.33;13.77;;;3.00;99.90;;;;;;5006196;28;20045;-58